Time;durP1;ratioP1;P1;durP2;ratioP2;P2;SDS_P1;SDS_P2;PMS_P1;PMS_P2;Temp;Humidity;BMP_temperature;BMP_pressure;BME280_temperature;BME280_humidity;BME280_pressure;Samples;Min_cycle;Max_cycle;Signal;HPM_P1;HPM_P2
2023/08/14 00:00:25;;;;;;;18.75;9.38;;;20.20;99.90;;;;;;4069439;29;20082;-60
2023/08/14 00:02:27;;;;;;;19.27;9.13;;;20.20;99.90;;;;;;4070129;29;20052;-61
2023/08/14 00:04:29;;;;;;;20.95;8.00;;;20.20;99.90;;;;;;4070133;29;20048;-61
2023/08/14 00:06:31;;;;;;;17.83;8.20;;;20.10;99.90;;;;;;4068532;29;20163;-61
2023/08/14 00:08:33;;;;;;;27.73;12.65;;;20.10;99.90;;;;;;4069011;29;20046;-61
2023/08/14 00:10:36;;;;;;;29.58;14.32;;;20.10;99.90;;;;;;4069110;29;20227;-62
2023/08/14 00:12:38;;;;;;;26.40;12.00;;;20.10;99.90;;;;;;4069938;29;20103;-61
2023/08/14 00:14:40;;;;;;;22.30;12.57;;;20.10;99.90;;;;;;4069718;29;20506;-61
2023/08/14 00:16:43;;;;;;;23.02;11.93;;;20.10;99.90;;;;;;4069799;29;20144;-61
2023/08/14 00:18:45;;;;;;;16.60;8.07;;;20.10;99.90;;;;;;4069297;29;20052;-61
2023/08/14 00:20:47;;;;;;;16.08;7.85;;;20.00;99.90;;;;;;4069580;29;20056;-62
2023/08/14 00:22:50;;;;;;;19.35;6.93;;;20.00;99.90;;;;;;4069578;29;20455;-62
2023/08/14 00:24:52;;;;;;;14.30;7.07;;;20.00;99.90;;;;;;4069852;29;20052;-61
2023/08/14 00:26:54;;;;;;;13.43;6.07;;;20.00;99.90;;;;;;4069518;29;20130;-61
2023/08/14 00:28:56;;;;;;;21.73;6.47;;;20.00;99.90;;;;;;4069151;29;20402;-61
2023/08/14 00:30:58;;;;;;;13.05;6.45;;;20.10;99.80;;;;;;4067935;29;20155;-62
2023/08/14 00:33:02;;;;;;;12.85;6.38;;;20.10;99.70;;;;;;4069524;29;20051;-61
2023/08/14 00:35:04;;;;;;;14.38;7.00;;;20.10;99.60;;;;;;4069119;29;20074;-62
2023/08/14 00:37:06;;;;;;;14.82;7.70;;;20.10;99.90;;;;;;4069394;29;20482;-62
2023/08/14 00:39:08;;;;;;;24.02;7.72;;;20.10;99.90;;;;;;4068912;29;20052;-64
2023/08/14 00:41:11;;;;;;;17.27;7.30;;;20.10;99.90;;;;;;4069448;29;20475;-64
2023/08/14 00:43:13;;;;;;;14.32;6.07;;;20.10;99.90;;;;;;4069268;29;20056;-64
2023/08/14 00:45:15;;;;;;;16.55;7.00;;;20.10;99.60;;;;;;4069231;29;20048;-63
2023/08/14 00:47:18;;;;;;;15.38;6.13;;;20.10;99.60;;;;;;4069240;29;20126;-63
2023/08/14 00:49:22;;;;;;;14.90;6.03;;;20.10;99.50;;;;;;4068439;29;20048;-63
2023/08/14 00:51:25;;;;;;;13.57;5.82;;;20.10;99.50;;;;;;4069474;29;20459;-63
2023/08/14 00:53:30;;;;;;;15.57;6.93;;;20.10;99.60;;;;;;4069023;29;20054;-61
2023/08/14 00:55:32;;;;;;;13.65;6.35;;;20.10;99.70;;;;;;4069042;29;20048;-61
2023/08/14 00:57:35;;;;;;;13.52;5.90;;;20.00;99.80;;;;;;4069391;29;20096;-62
2023/08/14 00:59:37;;;;;;;17.63;6.13;;;20.00;99.80;;;;;;4068248;29;20047;-61
2023/08/14 01:01:39;;;;;;;17.92;6.72;;;20.00;99.70;;;;;;4069066;29;20112;-63
2023/08/14 01:03:42;;;;;;;15.65;6.85;;;20.00;99.90;;;;;;4068859;29;20052;-63
2023/08/14 01:05:46;;;;;;;14.02;5.80;;;20.00;99.70;;;;;;4068887;29;20066;-63
2023/08/14 01:07:48;;;;;;;14.43;5.70;;;20.00;99.60;;;;;;4069045;29;20471;-63
2023/08/14 01:09:51;;;;;;;13.38;5.63;;;19.90;99.80;;;;;;4068383;29;20076;-62
2023/08/14 01:12:02;;;;;;;11.95;6.45;;;19.90;99.90;;;;;;4068738;29;20165;-63
2023/08/14 01:14:11;;;;;;;15.13;5.85;;;19.90;99.90;;;;;;4068709;29;20112;-61
2023/08/14 01:16:21;;;;;;;12.30;6.10;;;19.90;99.90;;;;;;4069014;29;20044;-61
2023/08/14 01:18:26;;;;;;;11.75;5.80;;;19.80;99.90;;;;;;4068743;29;20052;-62
2023/08/14 01:20:30;;;;;;;10.80;5.63;;;19.80;99.90;;;;;;4068234;29;20072;-62
2023/08/14 01:22:43;;;;;;;11.18;5.25;;;19.80;99.90;;;;;;4069183;29;20111;-62
2023/08/14 01:24:51;;;;;;;18.13;6.85;;;19.90;99.90;;;;;;4068916;29;20387;-61
2023/08/14 01:26:55;;;;;;;15.05;5.53;;;19.90;99.90;;;;;;4068731;29;20079;-61
2023/08/14 01:28:57;;;;;;;14.77;5.88;;;20.00;99.90;;;;;;4068205;29;20123;-63
2023/08/14 01:31:02;;;;;;;;;;;19.90;99.90;;;;;;4069121;29;20052;-64
2023/08/14 01:33:04;;;;;;;14.40;5.20;;;19.80;99.90;;;;;;4068391;29;20007;-64
2023/08/14 01:35:07;;;;;;;14.38;5.82;;;19.70;99.90;;;;;;4068962;29;20091;-64
2023/08/14 01:37:16;;;;;;;16.13;5.95;;;19.70;99.90;;;;;;4068685;29;20126;-63
2023/08/14 01:39:23;;;;;;;15.68;6.05;;;19.80;99.90;;;;;;4067772;29;20048;-64
2023/08/14 01:41:31;;;;;;;13.05;6.00;;;19.80;99.90;;;;;;4067023;29;20055;-64
2023/08/14 01:43:40;;;;;;;12.90;5.55;;;19.80;99.90;;;;;;4068711;29;20063;-64
2023/08/14 01:45:42;;;;;;;14.30;5.68;;;19.70;99.90;;;;;;4068304;29;20052;-64
2023/08/14 01:47:46;;;;;;;12.45;5.78;;;19.80;99.90;;;;;;4067943;29;20094;-64
2023/08/14 01:49:51;;;;;;;10.30;5.03;;;19.90;99.90;;;;;;4067781;29;20056;-64
2023/08/14 01:51:54;;;;;;;15.05;5.43;;;19.80;99.90;;;;;;4068380;29;20048;-63
2023/08/14 01:53:57;;;;;;;11.50;5.43;;;19.90;99.90;;;;;;4068102;29;20051;-63
2023/08/14 01:55:59;;;;;;;11.52;4.88;;;19.90;99.90;;;;;;4068875;29;20083;-64
2023/08/14 01:58:02;;;;;;;13.70;5.50;;;19.90;99.90;;;;;;4069251;29;20439;-61
2023/08/14 02:00:09;;;;;;;17.52;5.63;;;19.90;99.90;;;;;;4068418;29;20083;-61
2023/08/14 02:02:13;;;;;;;12.55;5.13;;;19.90;99.90;;;;;;4068385;29;20048;-62
2023/08/14 02:04:15;;;;;;;15.60;5.68;;;19.90;99.90;;;;;;4068682;29;20058;-61
2023/08/14 02:06:17;;;;;;;15.55;4.97;;;19.90;99.90;;;;;;4068685;29;20044;-61
2023/08/14 02:08:19;;;;;;;13.55;5.18;;;19.90;99.90;;;;;;4068519;29;20139;-62
2023/08/14 02:10:22;;;;;;;12.40;4.80;;;20.00;99.90;;;;;;4067306;29;20189;-62
2023/08/14 02:12:24;;;;;;;13.88;5.65;;;19.90;99.90;;;;;;4068201;29;20048;-62
2023/08/14 02:14:26;;;;;;;12.73;5.28;;;20.00;99.90;;;;;;4067886;29;20403;-63
2023/08/14 02:16:29;;;;;;;13.35;5.03;;;20.00;99.90;;;;;;4068133;29;20052;-62
2023/08/14 02:18:31;;;;;;;15.00;5.10;;;20.00;99.90;;;;;;4068170;29;20413;-62
2023/08/14 02:20:33;;;;;;;11.90;4.85;;;19.90;99.90;;;;;;4067638;29;20130;-62
2023/08/14 02:22:36;;;;;;;12.07;5.50;;;19.90;99.90;;;;;;4068248;29;20546;-63
2023/08/14 02:24:38;;;;;;;12.10;4.95;;;19.90;99.90;;;;;;4068103;29;20055;-63
2023/08/14 02:26:40;;;;;;;10.75;4.88;;;19.90;99.90;;;;;;4068205;29;20147;-63
2023/08/14 02:28:42;;;;;;;17.60;5.88;;;19.80;99.90;;;;;;4068432;29;20135;-63
2023/08/14 02:30:44;;;;;;;13.32;5.43;;;19.80;99.90;;;;;;4066961;29;20048;-63
2023/08/14 02:32:47;;;;;;;19.92;5.22;;;19.70;99.90;;;;;;4070063;29;20052;-63
2023/08/14 02:34:52;;;;;;;13.98;5.18;;;19.70;99.90;;;;;;4071268;29;20058;-62
2023/08/14 02:36:54;;;;;;;11.45;4.57;;;19.70;99.90;;;;;;4071328;29;20044;-62
2023/08/14 02:38:57;;;;;;;13.55;4.95;;;19.70;99.90;;;;;;4071173;29;20055;-62
2023/08/14 02:41:01;;;;;;;13.70;5.15;;;19.70;99.90;;;;;;4070720;29;20072;-62
2023/08/14 02:43:04;;;;;;;10.98;4.82;;;19.70;99.90;;;;;;4071259;29;20044;-63
2023/08/14 02:45:07;;;;;;;11.95;4.60;;;19.70;99.90;;;;;;4071041;29;20052;-61
2023/08/14 02:47:09;;;;;;;11.45;4.80;;;19.60;99.90;;;;;;4071405;29;20055;-61
2023/08/14 02:49:12;;;;;;;11.63;4.80;;;19.70;99.90;;;;;;4071013;29;20083;-62
2023/08/14 02:51:15;;;;;;;14.55;4.57;;;19.70;99.90;;;;;;4070933;29;20045;-61
2023/08/14 02:53:17;;;;;;;11.20;4.13;;;19.70;99.90;;;;;;4071023;29;20417;-61
2023/08/14 02:55:19;;;;;;;13.25;4.55;;;19.70;99.90;;;;;;4071110;29;20052;-61
2023/08/14 02:57:21;;;;;;;16.17;4.35;;;19.70;99.90;;;;;;4071155;29;20135;-62
2023/08/14 02:59:23;;;;;;;17.10;4.07;;;19.70;99.90;;;;;;4070147;29;20056;-62
2023/08/14 03:01:25;;;;;;;11.15;4.18;;;19.70;99.50;;;;;;4070851;29;20048;-61
2023/08/14 03:03:27;;;;;;;9.60;3.85;;;19.70;99.90;;;;;;4070734;29;20410;-61
2023/08/14 03:05:31;;;;;;;8.55;3.25;;;19.70;99.90;;;;;;4070787;29;20478;-63
2023/08/14 03:07:33;;;;;;;11.57;3.40;;;19.70;99.70;;;;;;4070668;29;20051;-61
2023/08/14 03:09:35;;;;;;;7.88;3.08;;;19.70;98.90;;;;;;4070462;29;20103;-62
2023/08/14 03:11:38;;;;;;;12.52;3.22;;;19.70;99.20;;;;;;4070692;29;20060;-64
2023/08/14 03:13:39;;;;;;;11.18;3.35;;;19.70;99.10;;;;;;4070570;29;20071;-64
2023/08/14 03:15:41;;;;;;;12.77;3.30;;;19.70;98.80;;;;;;4070814;29;20148;-64
2023/08/14 03:17:44;;;;;;;9.40;2.90;;;19.70;98.40;;;;;;4070724;29;20071;-64
2023/08/14 03:19:46;;;;;;;9.43;3.65;;;19.80;98.30;;;;;;4069927;29;20048;-64
2023/08/14 03:21:51;;;;;;;7.82;3.00;;;19.80;98.50;;;;;;4070460;29;20059;-62
2023/08/14 03:23:53;;;;;;;;;;;19.80;98.60;;;;;;4071372;29;20111;-63
2023/08/14 03:25:55;;;;;;;10.70;3.28;;;19.70;97.80;;;;;;4070798;29;20368;-64
2023/08/14 03:27:57;;;;;;;9.38;3.25;;;19.70;98.60;;;;;;4070380;29;20142;-63
2023/08/14 03:29:59;;;;;;;8.55;3.03;;;19.70;98.40;;;;;;4069457;29;20048;-63
2023/08/14 03:32:01;;;;;;;9.32;3.10;;;19.70;97.90;;;;;;4070414;29;20059;-63
2023/08/14 03:34:03;;;;;;;11.75;3.03;;;19.70;98.20;;;;;;4070234;29;20123;-63
2023/08/14 03:36:05;;;;;;;11.32;2.95;;;19.80;98.10;;;;;;4070387;29;20048;-63
2023/08/14 03:38:09;;;;;;;11.65;3.00;;;19.80;98.10;;;;;;4070380;29;20076;-63
2023/08/14 03:40:11;;;;;;;12.88;3.42;;;19.80;97.70;;;;;;4069798;29;20048;-62
2023/08/14 03:42:13;;;;;;;7.95;3.22;;;19.80;97.70;;;;;;4070423;29;20075;-62
2023/08/14 03:44:15;;;;;;;14.18;3.35;;;19.80;98.10;;;;;;4069807;29;20398;-63
2023/08/14 03:46:17;;;;;;;11.35;3.00;;;19.80;98.10;;;;;;4070420;29;20052;-62
2023/08/14 03:48:19;;;;;;;13.23;2.63;;;19.80;98.30;;;;;;4070463;29;20098;-63
2023/08/14 03:50:22;;;;;;;8.95;3.30;;;19.70;98.60;;;;;;4069696;29;20045;-65
2023/08/14 03:52:24;;;;;;;13.80;3.38;;;19.80;98.30;;;;;;4070647;29;20078;-63
2023/08/14 03:54:27;;;;;;;6.38;2.55;;;19.80;97.80;;;;;;4070279;29;20100;-62
2023/08/14 03:56:29;;;;;;;14.05;3.03;;;19.80;98.00;;;;;;4070241;29;20123;-62
2023/08/14 03:58:31;;;;;;;11.60;3.35;;;19.70;98.20;;;;;;4069887;29;20060;-63
2023/08/14 04:00:34;;;;;;;8.15;2.90;;;19.70;98.50;;;;;;4069497;29;20095;-62
2023/08/14 04:02:37;;;;;;;11.10;3.53;;;19.70;98.70;;;;;;4070199;29;20052;-63
2023/08/14 04:04:39;;;;;;;8.07;2.65;;;19.70;98.50;;;;;;4070510;29;20115;-62
2023/08/14 04:06:42;;;;;;;10.90;3.17;;;19.60;98.60;;;;;;4070186;29;20418;-62
2023/08/14 04:08:44;;;;;;;12.63;3.30;;;19.60;98.80;;;;;;4070373;29;20048;-63
2023/08/14 04:10:54;;;;;;;11.38;2.75;;;19.60;98.60;;;;;;4069376;29;20135;-63
2023/08/14 04:12:56;;;;;;;11.32;3.60;;;19.60;98.80;;;;;;4069566;29;20151;-63
2023/08/14 04:15:12;;;;;;;11.35;3.50;;;19.50;99.20;;;;;;4069881;29;20384;-63
2023/08/14 04:17:14;;;;;;;10.43;2.88;;;19.50;99.10;;;;;;4070046;29;20083;-62
2023/08/14 04:19:18;;;;;;;10.40;3.08;;;19.50;99.40;;;;;;4069618;29;20098;-64
2023/08/14 04:21:21;;;;;;;10.70;3.30;;;19.50;99.20;;;;;;4069043;29;20300;-65
2023/08/14 04:23:24;;;;;;;15.35;3.97;;;19.40;99.50;;;;;;4069627;29;20051;-62
2023/08/14 04:25:26;;;;;;;10.57;2.90;;;19.40;99.20;;;;;;4069628;29;20462;-62
2023/08/14 04:27:30;;;;;;;13.02;3.55;;;19.30;99.40;;;;;;4069312;29;20099;-62
2023/08/14 04:29:32;;;;;;;11.18;3.70;;;19.40;99.30;;;;;;4069242;29;20047;-64
2023/08/14 04:31:34;;;;;;;14.38;3.80;;;19.40;99.50;;;;;;4069627;29;20044;-63
2023/08/14 04:33:37;;;;;;;14.13;3.42;;;19.40;98.90;;;;;;4069823;29;20127;-63
2023/08/14 04:35:39;;;;;;;11.98;2.95;;;19.30;98.50;;;;;;4069381;29;20055;-63
2023/08/14 04:37:41;;;;;;;7.10;2.92;;;19.30;99.40;;;;;;4069631;29;20055;-62
2023/08/14 04:39:43;;;;;;;13.43;3.08;;;19.30;99.40;;;;;;4068669;29;20112;-63
2023/08/14 04:41:45;;;;;;;8.70;2.90;;;19.30;99.50;;;;;;4068972;29;20108;-62
2023/08/14 04:43:49;;;;;;;14.05;3.53;;;19.30;99.70;;;;;;4069340;29;20435;-64
2023/08/14 04:45:51;;;;;;;11.93;3.22;;;19.30;99.70;;;;;;4069492;29;20099;-65
2023/08/14 04:47:53;;;;;;;10.00;2.95;;;19.30;99.90;;;;;;4069128;29;20087;-64
2023/08/14 04:49:58;;;;;;;13.70;3.47;;;19.20;99.80;;;;;;4067476;29;20064;-63
2023/08/14 04:52:00;;;;;;;7.30;2.67;;;19.20;99.90;;;;;;4069430;29;20135;-63
2023/08/14 04:54:03;;;;;;;10.10;3.20;;;19.30;99.90;;;;;;4069540;29;20052;-62
2023/08/14 04:56:06;;;;;;;8.30;2.92;;;19.20;99.90;;;;;;4068464;29;20052;-64
2023/08/14 04:58:08;;;;;;;8.30;2.83;;;19.20;99.80;;;;;;4069436;29;20068;-63
2023/08/14 05:00:13;;;;;;;11.77;3.28;;;19.20;99.90;;;;;;4068587;29;20071;-63
2023/08/14 05:02:15;;;;;;;12.15;2.85;;;19.20;99.70;;;;;;4069000;29;20123;-63
2023/08/14 05:04:18;;;;;;;9.63;3.03;;;19.20;99.70;;;;;;4068996;29;20126;-61
2023/08/14 05:06:20;;;;;;;11.35;3.60;;;19.30;99.90;;;;;;4069112;29;20052;-63
2023/08/14 05:08:22;;;;;;;8.55;3.45;;;19.30;99.90;;;;;;4069113;29;20056;-63
2023/08/14 05:10:24;;;;;;;13.25;4.03;;;19.20;99.90;;;;;;4067864;29;20507;-63
2023/08/14 05:12:26;;;;;;;20.48;4.65;;;19.30;99.90;;;;;;4068816;29;20051;-62
2023/08/14 05:14:28;;;;;;;10.95;3.72;;;19.30;99.80;;;;;;4068757;29;20071;-62
2023/08/14 05:16:32;;;;;;;10.45;3.90;;;19.40;99.80;;;;;;4069069;29;20123;-62
2023/08/14 05:18:34;;;;;;;13.20;3.92;;;19.40;99.90;;;;;;4068949;29;20044;-62
2023/08/14 05:20:36;;;;;;;12.43;4.43;;;19.30;99.90;;;;;;4068359;29;20052;-62
2023/08/14 05:22:38;;;;;;;11.70;4.35;;;19.30;99.90;;;;;;4069029;29;20075;-62
2023/08/14 05:24:40;;;;;;;10.55;3.80;;;19.30;99.90;;;;;;4068473;29;20527;-61
2023/08/14 05:26:42;;;;;;;16.30;4.40;;;19.20;99.90;;;;;;4068829;29;20051;-63
2023/08/14 05:28:44;;;;;;;12.07;4.32;;;19.20;99.90;;;;;;4068795;29;20149;-63
2023/08/14 05:30:46;;;;;;;14.40;4.45;;;19.20;99.90;;;;;;4068020;29;20399;-64
2023/08/14 05:32:50;;;;;;;17.08;4.47;;;19.20;99.90;;;;;;4068730;29;20096;-64
2023/08/14 05:34:52;;;;;;;9.40;3.58;;;19.20;99.90;;;;;;4068376;29;20094;-64
2023/08/14 05:36:54;;;;;;;10.15;4.30;;;19.20;99.90;;;;;;4068384;29;20506;-64
2023/08/14 05:38:56;;;;;;;12.50;4.40;;;19.20;99.90;;;;;;4068565;29;20052;-65
2023/08/14 05:40:58;;;;;;;10.63;3.78;;;19.10;99.90;;;;;;4067711;29;20466;-64
2023/08/14 05:43:05;;;;;;;16.85;4.55;;;19.10;99.90;;;;;;4068693;29;20172;-64
2023/08/14 05:45:07;;;;;;;10.07;3.75;;;19.10;99.90;;;;;;4068593;29;20092;-64
2023/08/14 05:47:09;;;;;;;8.48;3.67;;;19.00;99.90;;;;;;4068511;29;20055;-64
2023/08/14 05:49:13;;;;;;;14.77;4.65;;;19.00;99.90;;;;;;4069175;29;20440;-64
2023/08/14 05:51:15;;;;;;;15.80;4.68;;;19.00;99.90;;;;;;4067944;29;20050;-64
2023/08/14 05:53:17;;;;;;;13.35;3.90;;;19.00;99.90;;;;;;4068127;29;20075;-64
2023/08/14 05:55:19;;;;;;;15.38;4.75;;;18.90;99.90;;;;;;4068461;29;20442;-64
2023/08/14 05:57:21;;;;;;;8.55;3.47;;;18.90;99.90;;;;;;4068278;29;20049;-62
2023/08/14 05:59:23;;;;;;;12.30;4.63;;;18.90;99.90;;;;;;4068426;29;20044;-62
2023/08/14 06:01:26;;;;;;;16.27;4.38;;;19.00;99.90;;;;;;4067783;29;20082;-63
2023/08/14 06:03:29;;;;;;;13.02;4.35;;;19.00;99.90;;;;;;4068744;29;20513;-64
2023/08/14 06:05:46;;;;;;;12.68;4.10;;;19.10;99.90;;;;;;4068236;29;20131;-64
2023/08/14 06:07:50;;;;;;;10.20;3.75;;;19.10;99.90;;;;;;4067461;29;20562;-63
2023/08/14 06:09:53;;;;;;;14.10;4.00;;;19.10;99.90;;;;;;4067960;29;20056;-65
2023/08/14 06:11:55;;;;;;;11.10;4.05;;;19.10;99.90;;;;;;4066511;29;20056;-64
2023/08/14 06:13:57;;;;;;;11.20;4.05;;;19.10;99.90;;;;;;4068015;29;20461;-63
2023/08/14 06:15:59;;;;;;;14.48;4.65;;;19.10;99.90;;;;;;4067950;29;20056;-64
2023/08/14 06:18:01;;;;;;;14.13;4.97;;;19.10;99.90;;;;;;4068299;29;20052;-63
2023/08/14 06:20:04;;;;;;;13.15;3.85;;;19.10;99.90;;;;;;4067422;29;20052;-64
2023/08/14 06:22:08;;;;;;;15.68;4.88;;;19.10;99.90;;;;;;4067618;29;20075;-64
2023/08/14 06:24:10;;;;;;;11.98;4.30;;;19.10;99.90;;;;;;4068262;29;20103;-63
2023/08/14 06:26:12;;;;;;;15.35;4.93;;;19.20;99.90;;;;;;4068195;29;20055;-63
2023/08/14 06:28:14;;;;;;;10.32;4.43;;;19.20;99.90;;;;;;4066811;29;20044;-63
2023/08/14 06:30:17;;;;;;;13.45;4.32;;;19.20;99.90;;;;;;4067656;29;20075;-64
2023/08/14 06:32:19;;;;;;;12.23;4.07;;;19.20;99.90;;;;;;4068026;29;20055;-63
2023/08/14 06:34:21;;;;;;;12.15;3.65;;;19.30;99.90;;;;;;4067956;29;20087;-64
2023/08/14 06:36:24;;;;;;;14.98;4.60;;;19.30;99.90;;;;;;4067949;29;20052;-63
2023/08/14 06:38:27;;;;;;;11.15;4.22;;;19.40;99.90;;;;;;4067682;29;20470;-63
2023/08/14 06:40:30;;;;;;;13.70;4.25;;;19.50;99.90;;;;;;4067173;29;20052;-63
2023/08/14 06:42:32;;;;;;;13.32;3.90;;;19.60;99.90;;;;;;4067759;29;20052;-63
2023/08/14 06:44:34;;;;;;;15.15;4.10;;;19.60;99.90;;;;;;4067866;29;20123;-61
2023/08/14 06:46:36;;;;;;;25.40;5.13;;;19.80;99.90;;;;;;4068143;29;20478;-64
2023/08/14 06:48:38;;;;;;;13.82;4.43;;;19.90;99.90;;;;;;4068246;29;20056;-63
2023/08/14 06:50:40;;;;;;;23.85;4.50;;;20.00;99.90;;;;;;4067559;29;20068;-65
2023/08/14 06:52:43;;;;;;;14.23;4.00;;;20.00;99.60;;;;;;4067855;29;20052;-65
2023/08/14 06:54:46;;;;;;;12.23;3.53;;;20.00;99.50;;;;;;4067858;29;20048;-65
2023/08/14 06:56:48;;;;;;;12.27;3.15;;;20.00;98.30;;;;;;4067938;29;20056;-65
2023/08/14 06:58:51;;;;;;;11.02;3.22;;;20.00;98.80;;;;;;4068047;29;20063;-65
2023/08/14 07:00:54;;;;;;;9.13;3.15;;;20.10;98.90;;;;;;4067129;29;20131;-65
2023/08/14 07:02:56;;;;;;;10.23;3.45;;;20.10;98.80;;;;;;4067760;29;20076;-65
2023/08/14 07:04:58;;;;;;;10.35;3.05;;;20.20;98.30;;;;;;4068159;29;20055;-65
2023/08/14 07:07:01;;;;;;;9.40;2.85;;;20.20;98.20;;;;;;4067636;29;20056;-64
2023/08/14 07:09:03;;;;;;;11.77;3.20;;;20.30;97.90;;;;;;4067598;29;20149;-65
2023/08/14 07:11:06;;;;;;;11.40;2.75;;;20.30;98.20;;;;;;4066930;29;20063;-65
2023/08/14 07:13:10;;;;;;;13.38;3.05;;;20.30;97.90;;;;;;4067810;29;20055;-65
2023/08/14 07:15:12;;;;;;;13.40;2.80;;;20.40;97.60;;;;;;4067627;29;20095;-65
2023/08/14 07:17:14;;;;;;;10.05;3.30;;;20.50;97.70;;;;;;4067751;29;20070;-63
2023/08/14 07:19:17;;;;;;;10.40;2.80;;;20.50;97.60;;;;;;4070164;29;20052;-63
2023/08/14 07:21:19;;;;;;;14.38;3.20;;;20.70;97.00;;;;;;4070097;29;20055;-62
2023/08/14 07:23:22;;;;;;;10.60;2.78;;;20.80;96.20;;;;;;4070869;29;20044;-64
2023/08/14 07:25:24;;;;;;;11.43;2.78;;;20.90;96.20;;;;;;4070889;29;20406;-62
2023/08/14 07:27:28;;;;;;;11.73;3.03;;;21.10;96.70;;;;;;4070434;29;20059;-62
2023/08/14 07:29:30;;;;;;;13.93;3.58;;;21.30;96.60;;;;;;4070521;29;20056;-65
2023/08/14 07:31:37;;;;;;;14.52;3.33;;;21.40;96.60;;;;;;4069720;29;20135;-64
2023/08/14 07:33:39;;;;;;;15.43;4.13;;;21.50;96.30;;;;;;4070572;29;20454;-64
2023/08/14 07:35:41;;;;;;;16.10;4.15;;;21.70;96.30;;;;;;4070079;29;20384;-63
2023/08/14 07:37:43;;;;;;;11.48;2.88;;;21.70;96.10;;;;;;4070098;29;20055;-64
2023/08/14 07:39:47;;;;;;;12.07;3.00;;;21.80;95.90;;;;;;4072036;29;20491;-64
2023/08/14 07:41:49;;;;;;;14.02;5.20;;;21.90;95.70;;;;;;4071448;29;20439;-62
2023/08/14 07:43:52;;;;;;;20.42;7.15;;;22.00;95.50;;;;;;4072055;29;20048;-62
2023/08/14 07:45:54;;;;;;;13.50;3.55;;;22.00;96.00;;;;;;4071027;29;20446;-62
2023/08/14 07:47:56;;;;;;;14.00;3.45;;;22.10;95.00;;;;;;4071359;29;20096;-64
2023/08/14 07:49:58;;;;;;;12.18;3.45;;;22.10;94.70;;;;;;4071012;29;20084;-64
2023/08/14 07:52:00;;;;;;;12.75;2.72;;;22.20;95.20;;;;;;4070053;29;20459;-63
2023/08/14 07:54:03;;;;;;;11.25;3.05;;;22.20;95.20;;;;;;4070470;29;20048;-64
2023/08/14 07:56:05;;;;;;;11.50;2.67;;;22.30;95.00;;;;;;4070238;29;20048;-61
2023/08/14 07:58:08;;;;;;;9.90;3.10;;;22.40;94.90;;;;;;4070351;29;20056;-61
2023/08/14 08:00:16;;;;;;;13.45;2.97;;;22.50;94.80;;;;;;4069783;29;20062;-62
2023/08/14 08:02:18;;;;;;;24.17;10.20;;;22.50;94.40;;;;;;4070051;29;20074;-61
2023/08/14 08:04:20;;;;;;;16.35;3.53;;;22.60;94.70;;;;;;4069690;29;20083;-62
2023/08/14 08:06:25;;;;;;;;;;;22.70;94.70;;;;;;4070641;29;20075;-62
2023/08/14 08:08:27;;;;;;;16.80;3.15;;;22.70;94.00;;;;;;4070287;29;20009;-62
2023/08/14 08:10:30;;;;;;;14.98;3.28;;;22.70;94.50;;;;;;4069389;29;20589;-62
2023/08/14 08:12:32;;;;;;;13.82;3.20;;;22.90;94.70;;;;;;4070468;29;20052;-62
2023/08/14 08:14:35;;;;;;;10.18;2.67;;;23.00;94.20;;;;;;4070610;29;20048;-62
2023/08/14 08:16:39;;;;;;;8.13;2.95;;;23.10;94.10;;;;;;4070717;29;20092;-60
2023/08/14 08:18:41;;;;;;;10.35;3.03;;;23.10;93.90;;;;;;4069595;29;20109;-61
2023/08/14 08:20:44;;;;;;;9.82;2.63;;;23.10;94.20;;;;;;4069334;29;20054;-61
2023/08/14 08:22:46;;;;;;;13.57;2.25;;;23.10;93.90;;;;;;4069853;29;20411;-60
2023/08/14 08:24:48;;;;;;;8.85;2.83;;;23.20;93.90;;;;;;4069950;29;20055;-60
2023/08/14 08:26:50;;;;;;;13.85;3.30;;;23.20;93.70;;;;;;4069697;29;20146;-61
2023/08/14 08:28:52;;;;;;;16.77;3.00;;;23.40;93.60;;;;;;4069742;29;20055;-61
2023/08/14 08:30:54;;;;;;;12.73;3.38;;;23.50;93.60;;;;;;4066965;29;20081;-60
2023/08/14 08:32:57;;;;;;;11.15;3.05;;;23.60;93.70;;;;;;4068199;29;20499;-60
2023/08/14 08:35:03;;;;;;;10.55;2.47;;;23.70;93.50;;;;;;4069859;29;20058;-61
2023/08/14 08:37:06;;;;;;;13.00;2.70;;;23.80;93.60;;;;;;4074995;29;20116;-59
2023/08/14 08:39:08;;;;;;;14.32;3.05;;;23.90;93.10;;;;;;4073552;29;20154;-61
2023/08/14 08:41:13;;;;;;;11.52;3.00;;;24.00;92.90;;;;;;4070741;29;20514;-60
2023/08/14 08:43:16;;;;;;;10.27;3.15;;;23.90;93.10;;;;;;4070116;29;20048;-60
2023/08/14 08:45:21;;;;;;;12.55;2.75;;;23.90;92.60;;;;;;4069857;29;20210;-62
2023/08/14 08:47:26;;;;;;;11.35;2.78;;;23.80;92.30;;;;;;4069614;29;20056;-62
2023/08/14 08:49:30;;;;;;;12.60;2.63;;;23.80;92.50;;;;;;4069656;29;20072;-61
2023/08/14 08:51:34;;;;;;;11.63;3.03;;;23.70;92.20;;;;;;4070117;29;20048;-61
2023/08/14 08:53:37;;;;;;;11.32;2.83;;;23.90;92.40;;;;;;4069628;29;20052;-61
2023/08/14 08:55:39;;;;;;;15.82;3.38;;;23.90;92.50;;;;;;4070670;29;20052;-61
2023/08/14 08:57:42;;;;;;;12.63;2.70;;;24.10;92.70;;;;;;4070470;29;20127;-61
2023/08/14 08:59:46;;;;;;;10.00;3.08;;;24.10;92.80;;;;;;4069560;29;20132;-62
2023/08/14 09:01:48;;;;;;;13.85;3.10;;;24.20;92.50;;;;;;4068466;29;20071;-61
2023/08/14 09:03:51;;;;;;;11.27;3.33;;;24.30;92.40;;;;;;4069763;29;20052;-62
2023/08/14 09:05:55;;;;;;;12.38;2.90;;;24.30;92.70;;;;;;4070311;29;20067;-62
2023/08/14 09:07:57;;;;;;;16.53;3.33;;;24.50;92.80;;;;;;4070456;29;20104;-62
2023/08/14 09:10:00;;;;;;;12.65;2.90;;;24.40;92.50;;;;;;4068692;29;20144;-62
2023/08/14 09:12:03;;;;;;;12.15;2.70;;;24.40;92.50;;;;;;4068846;29;20056;-62
2023/08/14 09:14:06;;;;;;;12.95;3.05;;;24.30;92.30;;;;;;4072084;29;20052;-63
2023/08/14 09:16:12;;;;;;;8.38;2.88;;;24.30;92.30;;;;;;4070409;29;20052;-62
2023/08/14 09:18:14;;;;;;;11.20;2.30;;;24.30;92.20;;;;;;4069531;29;20455;-62
2023/08/14 09:20:17;;;;;;;12.68;3.55;;;24.10;92.10;;;;;;4069897;29;20076;-62
2023/08/14 09:22:30;;;;;;;12.13;3.30;;;24.10;92.30;;;;;;4068821;29;20055;-62
2023/08/14 09:24:34;;;;;;;12.48;2.67;;;24.10;92.80;;;;;;4067720;29;20079;-61
2023/08/14 09:26:36;;;;;;;14.20;3.60;;;24.20;93.00;;;;;;4069361;29;20180;-62
2023/08/14 09:28:38;;;;;;;13.18;3.13;;;24.30;93.20;;;;;;4068999;29;20052;-62
2023/08/14 09:30:41;;;;;;;10.07;2.33;;;24.30;93.30;;;;;;4068786;29;20554;-61
2023/08/14 09:32:43;;;;;;;8.93;2.80;;;24.40;93.30;;;;;;4072481;29;20562;-61
2023/08/14 09:34:45;;;;;;;10.38;3.20;;;24.40;93.00;;;;;;4073531;29;20044;-62
2023/08/14 09:36:48;;;;;;;12.70;2.80;;;24.40;93.50;;;;;;4074450;29;20052;-61
2023/08/14 09:38:53;;;;;;;9.55;2.80;;;24.40;93.40;;;;;;4074889;29;20059;-63
2023/08/14 09:40:57;;;;;;;10.73;3.22;;;24.40;93.50;;;;;;4070777;29;20560;-62
2023/08/14 09:43:00;;;;;;;11.77;3.03;;;24.50;93.50;;;;;;4071002;29;20056;-63
2023/08/14 09:45:02;;;;;;;15.65;3.05;;;24.50;93.70;;;;;;4070461;29;20512;-62
2023/08/14 09:47:04;;;;;;;9.23;3.28;;;24.60;93.60;;;;;;4069268;29;20059;-63
2023/08/14 09:49:07;;;;;;;14.85;2.70;;;24.60;93.40;;;;;;4068707;29;20451;-61
2023/08/14 09:51:11;;;;;;;8.57;3.55;;;24.60;93.30;;;;;;4068302;29;20056;-62
2023/08/14 09:53:13;;;;;;;9.02;2.83;;;24.70;93.60;;;;;;4068992;29;20076;-63
2023/08/14 09:55:17;;;;;;;11.35;2.50;;;24.70;93.40;;;;;;4069018;29;20052;-62
2023/08/14 09:57:22;;;;;;;13.38;3.00;;;24.60;93.60;;;;;;4068993;29;20052;-60
2023/08/14 09:59:30;;;;;;;7.65;2.90;;;24.70;93.70;;;;;;4069179;29;20051;-61
2023/08/14 10:01:33;;;;;;;11.57;3.20;;;25.00;93.80;;;;;;4069165;29;20131;-62
2023/08/14 10:03:36;;;;;;;11.38;3.33;;;25.10;93.70;;;;;;4070758;29;20072;-61
2023/08/14 10:05:38;;;;;;;14.82;3.13;;;25.20;93.30;;;;;;4070992;29;20052;-62
2023/08/14 10:07:42;;;;;;;14.93;3.78;;;25.40;93.30;;;;;;4070558;29;20143;-61
2023/08/14 10:09:48;;;;;;;13.38;4.82;;;25.50;93.20;;;;;;4071564;29;20052;-61
2023/08/14 10:11:54;;;;;;;15.13;6.13;;;25.50;92.90;;;;;;4071756;29;20059;-62
2023/08/14 10:14:00;;;;;;;11.52;4.55;;;25.70;93.30;;;;;;4071072;29;20052;-62
2023/08/14 10:16:06;;;;;;;12.30;3.90;;;25.70;93.10;;;;;;4054780;29;20049;-61
2023/08/14 10:18:12;;;;;;;14.85;5.05;;;25.70;92.90;;;;;;4054567;29;20048;-61
2023/08/14 10:20:17;;;;;;;12.85;4.93;;;25.80;92.80;;;;;;4052811;29;20051;-61
2023/08/14 10:22:19;;;;;;;;;;;26.00;92.80;;;;;;4052675;29;20052;-62
2023/08/14 10:24:23;;;;;;;10.88;3.05;;;26.00;92.80;;;;;;4052565;29;20350;-62
2023/08/14 10:26:26;;;;;;;11.40;3.20;;;26.00;92.80;;;;;;4052707;29;20052;-62
2023/08/14 10:28:31;;;;;;;10.30;2.85;;;26.10;92.60;;;;;;4053020;29;20108;-62
2023/08/14 10:30:35;;;;;;;7.90;3.20;;;26.00;92.40;;;;;;4052805;29;20108;-61
2023/08/14 10:32:38;;;;;;;12.68;3.55;;;26.10;92.90;;;;;;4052100;29;20044;-62